sensor_id;sensor_type;location;lat;lon;timestamp;P1;durP1;ratioP1;P2;durP2;ratioP2
42978;SDS011;28616;44.746;19.678;2024-03-29T13:25:31;9.60;;;7.18;;
42978;SDS011;28616;44.746;19.678;2024-03-29T13:28:02;14.00;;;7.35;;
42978;SDS011;28616;44.746;19.678;2024-03-29T13:30:28;13.10;;;7.60;;
42978;SDS011;28616;44.746;19.678;2024-03-29T13:32:57;13.95;;;8.00;;
42978;SDS011;28616;44.746;19.678;2024-03-29T13:35:24;10.02;;;8.15;;
42978;SDS011;28616;44.746;19.678;2024-03-29T13:37:59;12.05;;;7.07;;
42978;SDS011;28616;44.746;19.678;2024-03-29T13:40:27;10.30;;;7.10;;
42978;SDS011;28616;44.746;19.678;2024-03-29T13:42:54;11.27;;;6.90;;
42978;SDS011;28616;44.746;19.678;2024-03-29T13:45:20;11.35;;;6.72;;
42978;SDS011;28616;44.746;19.678;2024-03-29T13:47:46;17.77;;;8.80;;
42978;SDS011;28616;44.746;19.678;2024-03-29T13:50:12;12.77;;;6.40;;
42978;SDS011;28616;44.746;19.678;2024-03-29T13:52:40;12.48;;;6.68;;
42978;SDS011;28616;44.746;19.678;2024-03-29T13:55:07;8.75;;;6.38;;
42978;SDS011;28616;44.746;19.678;2024-03-29T13:57:39;11.07;;;6.88;;
42978;SDS011;28616;44.746;19.678;2024-03-29T14:00:06;8.18;;;5.85;;
42978;SDS011;28616;44.746;19.678;2024-03-29T14:02:32;12.57;;;6.43;;
42978;SDS011;28616;44.746;19.678;2024-03-29T14:04:59;12.38;;;6.63;;
42978;SDS011;28616;44.746;19.678;2024-03-29T14:07:29;10.32;;;6.60;;
42978;SDS011;28616;44.746;19.678;2024-03-29T14:15:59;11.75;;;5.40;;
42978;SDS011;28616;44.746;19.678;2024-03-29T14:18:28;13.13;;;5.15;;
42978;SDS011;28616;44.746;19.678;2024-03-29T14:20:54;11.27;;;5.55;;
42978;SDS011;28616;44.746;19.678;2024-03-29T14:23:22;16.23;;;5.53;;
42978;SDS011;28616;44.746;19.678;2024-03-29T14:25:50;12.23;;;5.35;;
42978;SDS011;28616;44.746;19.678;2024-03-29T14:28:16;11.55;;;5.32;;
42978;SDS011;28616;44.746;19.678;2024-03-29T14:30:42;12.75;;;6.00;;
42978;SDS011;28616;44.746;19.678;2024-03-29T14:33:11;8.65;;;5.28;;
42978;SDS011;28616;44.746;19.678;2024-03-29T14:35:37;10.82;;;5.15;;
42978;SDS011;28616;44.746;19.678;2024-03-29T14:38:03;9.63;;;5.50;;
42978;SDS011;28616;44.746;19.678;2024-03-29T14:40:30;12.20;;;6.00;;
42978;SDS011;28616;44.746;19.678;2024-03-29T14:42:56;12.68;;;5.95;;
42978;SDS011;28616;44.746;19.678;2024-03-29T14:45:23;13.10;;;6.18;;
42978;SDS011;28616;44.746;19.678;2024-03-29T14:47:49;12.95;;;5.70;;
42978;SDS011;28616;44.746;19.678;2024-03-29T14:50:15;11.02;;;5.80;;
42978;SDS011;28616;44.746;19.678;2024-03-29T14:52:43;15.20;;;6.55;;
42978;SDS011;28616;44.746;19.678;2024-03-29T14:55:10;15.50;;;5.82;;
42978;SDS011;28616;44.746;19.678;2024-03-29T14:57:36;13.07;;;5.43;;
42978;SDS011;28616;44.746;19.678;2024-03-29T15:00:02;16.10;;;6.28;;
42978;SDS011;28616;44.746;19.678;2024-03-29T15:02:29;12.75;;;5.97;;
42978;SDS011;28616;44.746;19.678;2024-03-29T15:04:55;12.70;;;6.72;;
42978;SDS011;28616;44.746;19.678;2024-03-29T15:07:22;24.08;;;6.63;;
42978;SDS011;28616;44.746;19.678;2024-03-29T15:09:51;12.85;;;6.43;;
42978;SDS011;28616;44.746;19.678;2024-03-29T15:12:17;12.90;;;6.45;;
42978;SDS011;28616;44.746;19.678;2024-03-29T15:14:43;11.98;;;6.70;;
42978;SDS011;28616;44.746;19.678;2024-03-29T15:17:09;11.80;;;7.97;;
42978;SDS011;28616;44.746;19.678;2024-03-29T15:19:36;21.90;;;7.70;;
42978;SDS011;28616;44.746;19.678;2024-03-29T15:22:03;16.58;;;7.25;;
42978;SDS011;28616;44.746;19.678;2024-03-29T15:24:29;12.45;;;6.55;;
42978;SDS011;28616;44.746;19.678;2024-03-29T15:26:55;19.60;;;7.45;;
42978;SDS011;28616;44.746;19.678;2024-03-29T15:29:24;15.73;;;7.53;;
42978;SDS011;28616;44.746;19.678;2024-03-29T15:31:50;17.83;;;7.70;;
42978;SDS011;28616;44.746;19.678;2024-03-29T15:34:16;17.67;;;8.13;;
42978;SDS011;28616;44.746;19.678;2024-03-29T15:36:42;18.35;;;8.65;;
42978;SDS011;28616;44.746;19.678;2024-03-29T15:39:09;18.38;;;8.20;;
42978;SDS011;28616;44.746;19.678;2024-03-29T15:41:38;18.63;;;7.25;;
42978;SDS011;28616;44.746;19.678;2024-03-29T15:44:04;17.90;;;7.22;;
42978;SDS011;28616;44.746;19.678;2024-03-29T15:46:31;13.68;;;7.80;;
42978;SDS011;28616;44.746;19.678;2024-03-29T15:48:57;22.17;;;6.57;;
42978;SDS011;28616;44.746;19.678;2024-03-29T15:51:24;13.80;;;7.10;;
42978;SDS011;28616;44.746;19.678;2024-03-29T15:53:50;20.98;;;6.57;;
42978;SDS011;28616;44.746;19.678;2024-03-29T15:56:17;15.98;;;7.65;;
42978;SDS011;28616;44.746;19.678;2024-03-29T15:58:44;17.63;;;6.15;;
42978;SDS011;28616;44.746;19.678;2024-03-29T16:01:11;20.13;;;7.90;;
42978;SDS011;28616;44.746;19.678;2024-03-29T16:03:38;17.80;;;6.90;;
42978;SDS011;28616;44.746;19.678;2024-03-29T16:06:04;20.45;;;6.95;;
42978;SDS011;28616;44.746;19.678;2024-03-29T16:08:31;17.88;;;7.53;;
42978;SDS011;28616;44.746;19.678;2024-03-29T16:11:02;13.25;;;7.50;;
42978;SDS011;28616;44.746;19.678;2024-03-29T16:16:00;23.05;;;8.35;;
42978;SDS011;28616;44.746;19.678;2024-03-29T16:18:27;29.42;;;9.05;;
42978;SDS011;28616;44.746;19.678;2024-03-29T16:21:08;32.00;;;10.10;;
42978;SDS011;28616;44.746;19.678;2024-03-29T16:23:35;25.70;;;10.40;;
42978;SDS011;28616;44.746;19.678;2024-03-29T16:26:10;32.10;;;8.85;;
42978;SDS011;28616;44.746;19.678;2024-03-29T16:28:36;23.63;;;8.00;;
42978;SDS011;28616;44.746;19.678;2024-03-29T16:31:02;27.08;;;8.52;;
42978;SDS011;28616;44.746;19.678;2024-03-29T16:33:29;22.90;;;9.85;;
42978;SDS011;28616;44.746;19.678;2024-03-29T16:35:55;17.45;;;8.27;;
42978;SDS011;28616;44.746;19.678;2024-03-29T16:38:21;19.17;;;7.68;;
42978;SDS011;28616;44.746;19.678;2024-03-29T16:40:47;12.57;;;9.00;;
42978;SDS011;28616;44.746;19.678;2024-03-29T16:43:14;22.05;;;8.75;;
42978;SDS011;28616;44.746;19.678;2024-03-29T16:45:40;16.10;;;9.82;;
42978;SDS011;28616;44.746;19.678;2024-03-29T16:48:06;16.38;;;8.25;;
42978;SDS011;28616;44.746;19.678;2024-03-29T16:50:33;18.33;;;8.27;;
42978;SDS011;28616;44.746;19.678;2024-03-29T16:53:00;19.63;;;8.27;;
42978;SDS011;28616;44.746;19.678;2024-03-29T16:55:27;18.98;;;6.55;;
42978;SDS011;28616;44.746;19.678;2024-03-29T16:57:55;19.55;;;10.13;;
42978;SDS011;28616;44.746;19.678;2024-03-29T17:00:22;19.13;;;10.85;;
42978;SDS011;28616;44.746;19.678;2024-03-29T17:02:50;20.80;;;9.43;;
42978;SDS011;28616;44.746;19.678;2024-03-29T17:05:16;16.92;;;8.18;;
42978;SDS011;28616;44.746;19.678;2024-03-29T17:07:42;26.95;;;9.30;;
42978;SDS011;28616;44.746;19.678;2024-03-29T17:10:09;27.90;;;8.63;;
42978;SDS011;28616;44.746;19.678;2024-03-29T17:12:35;19.70;;;7.05;;
42978;SDS011;28616;44.746;19.678;2024-03-29T17:15:01;19.33;;;9.27;;
42978;SDS011;28616;44.746;19.678;2024-03-29T17:17:27;24.75;;;12.50;;
42978;SDS011;28616;44.746;19.678;2024-03-29T17:19:54;36.60;;;14.25;;
42978;SDS011;28616;44.746;19.678;2024-03-29T17:22:20;33.65;;;13.82;;
42978;SDS011;28616;44.746;19.678;2024-03-29T17:24:46;35.03;;;12.82;;
42978;SDS011;28616;44.746;19.678;2024-03-29T17:27:13;43.40;;;14.52;;
42978;SDS011;28616;44.746;19.678;2024-03-29T17:29:39;217.20;;;90.65;;
42978;SDS011;28616;44.746;19.678;2024-03-29T17:32:06;72.82;;;34.53;;
42978;SDS011;28616;44.746;19.678;2024-03-29T17:34:32;100.38;;;42.47;;
42978;SDS011;28616;44.746;19.678;2024-03-29T17:36:58;151.73;;;61.97;;
42978;SDS011;28616;44.746;19.678;2024-03-29T17:39:24;190.43;;;79.22;;
42978;SDS011;28616;44.746;19.678;2024-03-29T17:41:50;194.27;;;78.95;;
42978;SDS011;28616;44.746;19.678;2024-03-29T17:44:16;197.13;;;77.43;;
42978;SDS011;28616;44.746;19.678;2024-03-29T17:46:45;231.45;;;103.00;;
42978;SDS011;28616;44.746;19.678;2024-03-29T17:49:13;232.43;;;99.90;;
42978;SDS011;28616;44.746;19.678;2024-03-29T17:51:39;308.45;;;136.70;;
42978;SDS011;28616;44.746;19.678;2024-03-29T17:54:05;264.58;;;111.85;;
42978;SDS011;28616;44.746;19.678;2024-03-29T17:56:31;244.82;;;112.25;;
42978;SDS011;28616;44.746;19.678;2024-03-29T17:58:56;133.40;;;55.28;;
42978;SDS011;28616;44.746;19.678;2024-03-29T18:01:23;162.48;;;73.30;;
42978;SDS011;28616;44.746;19.678;2024-03-29T18:03:49;150.50;;;61.17;;
42978;SDS011;28616;44.746;19.678;2024-03-29T18:06:15;114.57;;;52.33;;
42978;SDS011;28616;44.746;19.678;2024-03-29T18:08:41;101.10;;;49.50;;
42978;SDS011;28616;44.746;19.678;2024-03-29T18:11:07;132.02;;;47.58;;
42978;SDS011;28616;44.746;19.678;2024-03-29T18:13:33;117.97;;;45.25;;
42978;SDS011;28616;44.746;19.678;2024-03-29T18:16:03;108.07;;;51.53;;
42978;SDS011;28616;44.746;19.678;2024-03-29T18:18:32;128.05;;;52.35;;
42978;SDS011;28616;44.746;19.678;2024-03-29T18:20:58;129.35;;;56.83;;
42978;SDS011;28616;44.746;19.678;2024-03-29T18:23:24;128.85;;;55.83;;
42978;SDS011;28616;44.746;19.678;2024-03-29T18:25:49;163.07;;;63.72;;
42978;SDS011;28616;44.746;19.678;2024-03-29T18:28:16;141.98;;;61.95;;
42978;SDS011;28616;44.746;19.678;2024-03-29T18:30:42;152.95;;;65.22;;
42978;SDS011;28616;44.746;19.678;2024-03-29T18:33:08;167.85;;;70.80;;
42978;SDS011;28616;44.746;19.678;2024-03-29T18:35:34;228.27;;;97.25;;
42978;SDS011;28616;44.746;19.678;2024-03-29T18:38:01;200.60;;;80.38;;
42978;SDS011;28616;44.746;19.678;2024-03-29T18:40:27;181.77;;;74.30;;
42978;SDS011;28616;44.746;19.678;2024-03-29T18:42:53;173.20;;;74.35;;
42978;SDS011;28616;44.746;19.678;2024-03-29T18:45:19;169.70;;;73.03;;
42978;SDS011;28616;44.746;19.678;2024-03-29T18:47:51;161.60;;;66.10;;
42978;SDS011;28616;44.746;19.678;2024-03-29T18:50:18;229.15;;;97.60;;
42978;SDS011;28616;44.746;19.678;2024-03-29T18:52:46;209.85;;;90.57;;
42978;SDS011;28616;44.746;19.678;2024-03-29T18:55:13;167.80;;;67.40;;
42978;SDS011;28616;44.746;19.678;2024-03-29T18:57:39;143.57;;;54.95;;
42978;SDS011;28616;44.746;19.678;2024-03-29T19:00:06;145.95;;;59.75;;
42978;SDS011;28616;44.746;19.678;2024-03-29T19:02:36;148.05;;;55.55;;
42978;SDS011;28616;44.746;19.678;2024-03-29T19:05:02;165.68;;;84.78;;
42978;SDS011;28616;44.746;19.678;2024-03-29T19:07:28;202.20;;;91.38;;
42978;SDS011;28616;44.746;19.678;2024-03-29T19:09:54;214.35;;;87.28;;
42978;SDS011;28616;44.746;19.678;2024-03-29T19:12:20;260.42;;;123.55;;
42978;SDS011;28616;44.746;19.678;2024-03-29T19:14:47;216.18;;;100.53;;
42978;SDS011;28616;44.746;19.678;2024-03-29T19:17:14;175.90;;;82.68;;
42978;SDS011;28616;44.746;19.678;2024-03-29T19:19:39;166.27;;;77.20;;
42978;SDS011;28616;44.746;19.678;2024-03-29T19:22:05;145.02;;;63.08;;
42978;SDS011;28616;44.746;19.678;2024-03-29T19:24:31;168.75;;;72.47;;
42978;SDS011;28616;44.746;19.678;2024-03-29T19:26:58;135.73;;;61.50;;
42978;SDS011;28616;44.746;19.678;2024-03-29T19:29:24;120.07;;;51.92;;
42978;SDS011;28616;44.746;19.678;2024-03-29T19:31:50;139.90;;;61.63;;
42978;SDS011;28616;44.746;19.678;2024-03-29T19:34:16;136.40;;;57.85;;
42978;SDS011;28616;44.746;19.678;2024-03-29T19:36:42;141.00;;;56.78;;
42978;SDS011;28616;44.746;19.678;2024-03-29T19:39:09;138.50;;;57.35;;
42978;SDS011;28616;44.746;19.678;2024-03-29T19:41:39;124.38;;;51.28;;
42978;SDS011;28616;44.746;19.678;2024-03-29T19:44:05;131.32;;;52.80;;
42978;SDS011;28616;44.746;19.678;2024-03-29T19:46:32;108.93;;;45.85;;
42978;SDS011;28616;44.746;19.678;2024-03-29T19:48:59;145.77;;;60.47;;
